• Join FlightAware (Why Join?)
  • Login
  • US Flag 
12:23PM EDT


 

Airport Tracker/Info


-or-


 

Live Flight TrackerFlight Track Log ✈ SKW5631 ✈ 25-Jul-2013 ✈ KSFO - KBUR

Flight Track Log - Related Links

Times and Time Zones

All times are in EDT time to prevent confusion due to time zone crossing. See the SKW5631 flight status page for this flight to view local times or setup timezone preferences in your user account.

Time Position Orientation Groundspeed Altitude Reporting Facility
EDT Latitude Longitude Course Direction KTS MPH feet Rate Location/Type
10:14PM 37.6667 -122.3667 135° Southeast 170 196 1,600  Level Northern Cal TRACON
10:15PM 37.7167 -122.3833 345° North 222 255 3,200 1,680 Climbing Northern Cal TRACON
10:16PM 37.6833 -122.4667 243° Southwest 270 311 5,000 2,100 Climbing Northern Cal TRACON
10:17PM 37.3599 -122.2385 136° Southeast  Level FlightAware Approximate
10:17PM 37.6167 -122.4667 180° South 284 327 7,500  Level Northern Cal TRACON
10:18PM 37.2726 -122.1172 130° Southeast  Level FlightAware Approximate
10:18PM 37.5542 -122.4592 175° South 283 326 9,300  Level Oakland Center
10:19PM 37.2089 -122.0319 135° Southeast  Level FlightAware Approximate
10:19PM 37.4828 -122.4167 155° Southeast 298 343 11,000  Level Oakland Center
10:20PM 37.4183 -122.3433 138° Southeast 313 360 13,000 1,680 Climbing Oakland Center
10:21PM 37.3494 -122.2678 139° Southeast 327 376 14,500 1,260 Climbing Oakland Center
10:22PM 37.2775 -122.1894 139° Southeast 340 391 15,700 1,140 Climbing Oakland Center
10:23PM 37.2014 -122.1044 138° Southeast 364 419 16,900 1,080 Climbing Oakland Center
10:24PM 37.1239 -122.0189 139° Southeast 371 427 18,000 1,260 Climbing Oakland Center
10:25PM 37.0311 -121.9169 139° Southeast 373 429 19,500 1,320 Climbing Oakland Center
10:26PM 36.9531 -121.8317 139° Southeast 374 430 20,700 1,020 Climbing Oakland Center
10:27PM 36.8733 -121.7506 141° Southeast 371 427 21,700 900 Climbing Oakland Center
10:28PM 36.7911 -121.6589 138° Southeast 375 432 22,600 780 Climbing Oakland Center
10:29PM 36.7106 -121.5728 139° Southeast 380 437 23,400 780 Climbing Oakland Center
10:30PM 36.6300 -121.4850 139° Southeast 384 442 24,200 780 Climbing Oakland Center
10:31PM 36.5492 -121.3986 139° Southeast 384 442 25,000 660 Climbing Oakland Center
10:32PM 36.4686 -121.3108 139° Southeast 386 444 25,600 660 Climbing Oakland Center
10:33PM 36.3878 -121.2225 139° Southeast 388 447 26,400 660 Climbing Oakland Center
10:34PM 36.3053 -121.1353 140° Southeast 388 447 27,000 240 Climbing Oakland Center
10:35PM 36.2194 -121.0444 139° Southeast 402 463 27,000  Level Oakland Center
10:36PM 36.1311 -120.9500 139° Southeast 418 481 27,000  Level Oakland Center
10:37PM 36.0397 -120.8547 140° Southeast 429 494 27,000  Level Oakland Center
10:38PM 35.9486 -120.7558 139° Southeast 434 499 27,000  Level Oakland Center
10:39PM 35.8364 -120.6381 140° Southeast 439 505 27,000  Level Oakland Center
10:40PM 35.7442 -120.5403 139° Southeast 438 504 27,000  Level Oakland Center
10:41PM 35.6511 -120.4433 140° Southeast 437 503 27,000  Level Oakland Center
10:42PM 35.5733 -120.3631 140° Southeast 435 501 27,000  Level Los Angeles Center
10:43PM 35.4683 -120.2525 139° Southeast 412 474 27,000  Level Los Angeles Center
10:44PM 35.3828 -120.1647 140° Southeast 403 464 27,000  Level Los Angeles Center
10:45PM 35.2981 -120.0753 139° Southeast 398 458 27,000  Level Los Angeles Center
10:46PM 35.2122 -119.9867 140° Southeast 399 459 27,000  Level Los Angeles Center
10:47PM 35.1244 -119.8975 140° Southeast 407 468 27,000  Level Los Angeles Center
10:48PM 35.0417 -119.7981 135° Southeast 415 478 27,000  Level Los Angeles Center
10:49PM 34.9667 -119.6939 131° Southeast 412 474 27,000 -1,260 Level Los Angeles Center
10:50PM 34.8753 -119.5711 132° Southeast 409 471 24,500 -2,400 Descending Los Angeles Center
10:51PM 34.8019 -119.4747 133° Southeast 395 455 22,100 -2,100 Descending Los Angeles Center
10:53PM 34.7450 -119.3992 133° Southeast 386 444 20,300 -2,220 Descending Los Angeles Center
10:54PM 34.6653 -119.2914 132° Southeast 364 419 17,600 -2,460 Descending Los Angeles Center
10:55PM 34.5975 -119.2006 132° Southeast 352 405 15,300 -2,100 Descending Los Angeles Center
10:56PM 34.5347 -119.1186 133° Southeast 337 388 13,300 -1,920 Descending Los Angeles Center
10:57PM 34.4772 -119.0403 132° Southeast 311 358 11,400 -1,140 Descending Los Angeles Center
10:58PM 34.4208 -118.9664 133° Southeast 300 345 11,000 -1,020 Descending Los Angeles Center
10:59PM 34.3664 -118.8928 132° Southeast 293 337 9,400 -1,980 Descending Los Angeles Center
11:00PM 34.3069 -118.7975 127° Southeast 297 342 7,000 -1,920 Descending Los Angeles Center
11:01PM 34.2633 -118.7247 126° Southeast 272 313 5,500 -1,380 Descending Los Angeles Center
11:02PM 34.2242 -118.6519 123° Southeast 263 303 4,200 -780 Descending Los Angeles Center
11:03PM 34.2008 -118.5894 114° Southeast 214 246 4,000 -420 Descending Los Angeles Center
11:04PM 34.2008 -118.5272 90° East 189 217 3,400 -600 Descending Los Angeles Center